Bei Facebook empfehlenBei Twitter postenGoogle plusPinterest

Das Wetter im Erzgebirge am 13.07.2017

Wetter und Klima am 13.07.2017 Holzhau im Erzgebirge (630m ü.NN)
Letzte gemessene Temperatur und Uhrzeit der Messung23:45:00 Uhr5.50 °C
Temperatur (Maximum / Höchstwert) und Uhrzeit der Messung14:45:00 Uhr17.80 °C
Temperatur (Minimum / Tiefstwert) und Uhrzeit der Messung23:45:005.50 °C
Errechneter Absolutwert der Temperaturschwankungen zwischen Tmin und Tmax des Tages12.30 K
Errechnete Tagesmitteltemperatur11.63229 °C
Gesamt - Niederschlag des Tages (in flüssiger Form)1.04 Liter / m²
Luftdruck (Maximum / Höchstwert) und Zeitpunkt der Messung15:45:00 Uhr1017.60 hPa
Luftdruck (Minimum / Tiefstwert) und Zeitpunkt der Messung00:00:00 Uhr1009.40 hPa
Errechneter Absolutwert der Luftdruckschwankungen des Tages8.20 hPa
Höchste gemessene Windgeschwindigkeit und Uhrzeit der Messung00:15:00 Uhr38.88 km/h
Errechnete Windhäufigkeit in Relation zu den Messwerten des Tages13.54167 %
Niedrigste Windkühle (Windchill) und Zeitpunkt der Messung23:45:00 Uhr5.50 °C
Taupunkt (Maximum / Höchstwert) und Uhrzeit der Messung14:45:00 Uhr11.10 °C
Taupunkt (Minimum / Tiefstwert) und Uhrzeit der Messung23:45:003.80 °C
Anzahl der automatisch eingelesenen Messwerte 96

Detaillierte Wetter- und Klima- Messwerte für den 13.07.2017 in Holzhau im Erzgebirge (630m ü.NN)
ZeitTemperaturLuftdruckRel. LuftfeuchteWindWindrichtungWindchillTaupunktNiederschlag l/m²
23:45:005.50 °C1016.70 hPa89.00 %3.80 °C1.04
23:30:005.60 °C1016.70 hPa88.00 %3.80 °C1.04
23:15:005.80 °C1016.70 hPa87.00 %3.80 °C1.04
23:00:006.00 °C1016.80 hPa87.00 %4.00 °C1.04
22:45:006.40 °C1016.60 hPa86.00 %4.20 °C1.04
22:30:006.60 °C1016.70 hPa85.00 %4.30 °C1.04
22:15:006.80 °C1016.80 hPa83.00 %4.10 °C1.04
22:00:007.20 °C1016.80 hPa81.00 %4.20 °C1.04
21:45:007.90 °C1016.80 hPa80.00 %4.70 °C1.04
21:30:008.80 °C1016.70 hPa79.00 %5.40 °C1.04
21:15:009.50 °C1016.70 hPa77.00 %5.70 °C1.04
21:00:0010.40 °C1016.60 hPa74.00 %6.00 °C1.04
20:45:0011.50 °C1016.60 hPa71.00 %6.40 °C1.04
20:30:0012.50 °C1016.50 hPa69.00 %7.00 °C1.04
20:15:0013.20 °C1016.80 hPa66.00 %7.00 °C1.04
20:00:0013.80 °C1016.70 hPa64.00 %7.10 °C1.04
19:45:0014.40 °C1016.60 hPa63.00 %7.50 °C1.04
19:30:0015.00 °C1016.90 hPa62.00 %7.80 °C1.04
19:15:0015.60 °C1016.80 hPa60.00 %7.90 °C1.04
19:00:0015.90 °C1016.90 hPa61.00 %8.40 °C1.04
18:45:0016.10 °C1016.90 hPa61.00 %8.60 °C1.04
18:30:0016.40 °C1016.80 hPa60.00 %6.48 km/hWNW16.40 °C8.60 °C1.04
18:15:0016.70 °C1017.00 hPa61.00 %9.10 °C1.04
18:00:0016.50 °C1017.00 hPa60.00 %8.70 °C1.04
17:45:0016.50 °C1017.00 hPa59.00 %8.50 °C1.04
17:30:0017.00 °C1017.20 hPa60.00 %9.20 °C1.04
17:15:0016.30 °C1017.20 hPa63.00 %6.48 km/hW16.30 °C9.30 °C1.04
17:00:0015.80 °C1017.50 hPa62.00 %8.50 °C1.04
16:45:0016.40 °C1017.50 hPa60.00 %8.60 °C1.04
16:30:0016.60 °C1017.40 hPa60.00 %8.80 °C1.04
16:15:0017.10 °C1017.50 hPa60.00 %9.30 °C1.04
16:00:0017.20 °C1017.40 hPa58.00 %8.90 °C1.04
15:45:0017.60 °C1017.60 hPa60.00 %5.04 km/hWSW17.60 °C9.80 °C1.04
15:30:0017.50 °C1017.40 hPa59.00 %28.44 km/hWNW17.80 °C9.40 °C1.04
15:15:0017.30 °C1017.40 hPa60.00 %9.50 °C1.04
15:00:0017.30 °C1017.40 hPa61.00 %9.70 °C1.04
14:45:0017.80 °C1017.30 hPa65.00 %11.10 °C1.04
14:30:0016.40 °C1017.40 hPa64.00 %9.60 °C1.04
14:15:0015.50 °C1017.50 hPa67.00 %9.40 °C1.04
14:00:0015.60 °C1017.40 hPa67.00 %9.50 °C1.04
13:45:0015.20 °C1017.30 hPa69.00 %9.60 °C1.04
13:30:0014.60 °C1017.60 hPa72.00 %9.60 °C1.04
13:15:0014.80 °C1017.40 hPa71.00 %9.60 °C1.04
13:00:0014.70 °C1017.40 hPa72.00 %9.70 °C1.04
12:45:0013.80 °C1017.10 hPa79.00 %10.44 km/hSW13.80 °C10.20 °C1.04
12:30:0013.30 °C1017.40 hPa75.00 %9.00 °C1.04
12:15:0013.30 °C1017.30 hPa75.00 %9.00 °C1.04
12:00:0013.30 °C1017.10 hPa79.00 %9.70 °C1.04
11:45:0012.60 °C1017.40 hPa78.00 %8.90 °C1.04
11:30:0012.40 °C1017.20 hPa78.00 %8.70 °C1.04
11:15:0012.40 °C1017.00 hPa78.00 %8.70 °C1.04
11:00:0012.20 °C1017.00 hPa79.00 %8.70 °C1.04
10:45:0012.50 °C1016.80 hPa80.00 %9.10 °C1.04
10:30:0011.80 °C1016.70 hPa82.00 %8.80 °C1.04
10:15:0011.50 °C1016.60 hPa83.00 %8.70 °C1.04
10:00:0010.80 °C1016.70 hPa85.00 %14.40 km/hN10.80 °C8.40 °C1.04
09:45:0010.80 °C1016.50 hPa86.00 %6.48 km/hNO10.80 °C8.60 °C1.04
09:30:0010.50 °C1016.40 hPa86.00 %8.30 °C1.04
09:15:0010.60 °C1016.20 hPa87.00 %12.96 km/hWNW10.60 °C8.50 °C1.04
09:00:0010.10 °C1016.00 hPa90.00 %8.50 °C1.04
08:45:009.40 °C1016.10 hPa88.00 %7.50 °C1.04
08:30:009.90 °C1015.90 hPa90.00 %8.30 °C1.04
08:15:009.60 °C1015.80 hPa91.00 %8.20 °C1.04
08:00:009.20 °C1015.80 hPa92.00 %14.40 km/hN9.20 °C8.00 °C1.04
07:45:009.00 °C1016.00 hPa92.00 %7.80 °C1.04
07:30:008.80 °C1015.80 hPa93.00 %7.70 °C1.04
07:15:008.50 °C1015.70 hPa93.00 %7.40 °C1.04
07:00:008.30 °C1015.80 hPa93.00 %7.20 °C1.04
06:45:008.20 °C1015.70 hPa93.00 %7.10 °C1.04
06:30:008.10 °C1015.90 hPa93.00 %7.00 °C1.04
06:15:008.20 °C1015.50 hPa94.00 %7.30 °C1.04
06:00:008.10 °C1015.60 hPa93.00 %7.00 °C1.04
05:45:008.00 °C1015.20 hPa93.00 %6.90 °C1.04
05:30:008.00 °C1015.00 hPa93.00 %6.90 °C1.04
05:15:008.00 °C1014.80 hPa93.00 %6.90 °C1.04
05:00:008.00 °C1014.80 hPa93.00 %6.90 °C1.04
04:45:008.10 °C1014.50 hPa93.00 %7.00 °C1.04
04:30:008.10 °C1014.30 hPa93.00 %11.52 km/hWNW8.10 °C7.00 °C1.04
04:15:008.30 °C1014.20 hPa93.00 %7.20 °C1.04
04:00:008.40 °C1014.00 hPa93.00 %7.30 °C1.04
03:45:008.60 °C1013.80 hPa93.00 %7.50 °C1.04
03:30:008.90 °C1013.70 hPa94.00 %9.00 km/hN8.90 °C8.00 °C1.04
03:15:009.20 °C1013.50 hPa94.00 %8.30 °C1.04
03:00:009.30 °C1013.30 hPa94.00 %24.48 km/hN8.40 °C8.40 °C1.04
02:45:009.60 °C1013.10 hPa94.00 %8.70 °C1.04
02:30:009.80 °C1012.80 hPa94.00 %8.90 °C1.04
02:15:009.80 °C1012.50 hPa94.00 %8.90 °C1.04
02:00:009.70 °C1012.40 hPa93.00 %8.60 °C1.04
01:45:009.80 °C1012.30 hPa93.00 %8.70 °C1.04
01:30:0010.10 °C1012.20 hPa93.00 %9.00 °C1.04
01:15:0010.70 °C1011.60 hPa94.00 %9.80 °C1.04
01:00:0011.10 °C1011.10 hPa94.00 %10.20 °C1.04
00:45:0011.50 °C1010.50 hPa94.00 %10.60 °C1.04
00:30:0011.60 °C1010.20 hPa94.00 %10.70 °C1.04
00:15:0011.80 °C1010.00 hPa94.00 %38.88 km/hW10.70 °C10.90 °C1.04
00:00:0011.80 °C1009.40 hPa94.00 %10.90 °C 

Permanenter Link zu dieser Seite: Wetter im Erzgebirge am 13.07.2017
Performance-Info: Die Erstellung der Seite / Statistik(en) / Tabelle(n) erforderte 5 Datenbankserver-Abfrage(n) und dauerte 96 Millisekunden. (Dieser Messwert ist von der Gesamt-Auslastung des Servers abhängig.)
Erzgebirge - Wetter | Erzgebirge - Wetter (Mobilgeräte) | Komplette Klimadatenbank